Time;durP1;ratioP1;P1;durP2;ratioP2;P2;SDS_P1;SDS_P2;PMS_P1;PMS_P2;Temp;Humidity;BMP_temperature;BMP_pressure;BME280_temperature;BME280_humidity;BME280_pressure;Samples;Min_cycle;Max_cycle;Signal;HPM_P1;HPM_P2
2023/06/22 00:01:24;;;;;;;10.63;8.35;;;21.90;99.90;;;;;;4130770;28;20095;-64
2023/06/22 00:03:25;;;;;;;9.88;8.88;;;21.80;99.90;;;;;;4129903;28;20058;-66
2023/06/22 00:05:27;;;;;;;12.18;8.60;;;21.80;99.90;;;;;;4131194;28;20081;-62
2023/06/22 00:07:28;;;;;;;11.65;8.40;;;21.80;99.90;;;;;;4130220;28;20038;-62
2023/06/22 00:09:30;;;;;;;10.38;8.15;;;21.70;99.90;;;;;;4130417;28;20475;-63
2023/06/22 00:11:33;;;;;;;12.00;8.32;;;21.80;99.90;;;;;;4128749;28;20054;-66
2023/06/22 00:13:34;;;;;;;9.77;8.65;;;21.70;99.90;;;;;;4129703;28;20479;-61
2023/06/22 00:15:37;;;;;;;12.02;7.90;;;21.70;99.90;;;;;;4129029;28;20057;-61
2023/06/22 00:17:38;;;;;;;10.10;7.85;;;21.70;99.90;;;;;;4130174;28;20477;-62
2023/06/22 00:19:40;;;;;;;11.23;8.65;;;21.80;99.90;;;;;;4128728;28;20030;-61
2023/06/22 00:21:42;;;;;;;9.73;8.73;;;21.70;99.90;;;;;;4129835;28;20092;-62
2023/06/22 00:23:44;;;;;;;9.77;8.77;;;21.70;99.90;;;;;;4129119;28;20050;-61
2023/06/22 00:25:45;;;;;;;9.95;8.43;;;21.80;99.90;;;;;;4129838;28;20450;-61
2023/06/22 00:27:46;;;;;;;10.10;8.30;;;21.70;99.90;;;;;;4128608;28;20038;-61
2023/06/22 00:29:47;;;;;;;12.68;8.75;;;21.80;99.90;;;;;;4129539;28;20042;-61
2023/06/22 00:31:48;;;;;;;10.43;7.90;;;21.70;99.90;;;;;;4129663;28;20030;-67
2023/06/22 00:33:50;;;;;;;11.27;8.20;;;21.70;99.90;;;;;;4129381;28;20117;-62
2023/06/22 00:35:53;;;;;;;11.70;8.98;;;21.70;99.90;;;;;;4129696;28;20034;-66
2023/06/22 00:38:03;;;;;;;11.65;8.70;;;21.60;99.90;;;;;;4128577;28;20030;-68
2023/06/22 00:40:05;;;;;;;9.77;8.20;;;21.60;99.90;;;;;;4130011;28;20050;-63
2023/06/22 00:42:06;;;;;;;9.85;8.85;;;21.60;99.90;;;;;;4128805;28;20026;-61
2023/06/22 00:44:08;;;;;;;9.15;8.25;;;21.50;99.90;;;;;;4130231;28;20621;-62
2023/06/22 00:46:09;;;;;;;9.20;7.78;;;21.50;99.90;;;;;;4128120;28;20058;-61
2023/06/22 00:48:12;;;;;;;11.43;9.02;;;21.50;99.90;;;;;;4129327;28;20042;-61
2023/06/22 00:50:20;;;;;;;11.68;8.75;;;21.40;99.90;;;;;;4128417;28;20440;-62
2023/06/22 00:52:27;;;;;;;12.00;8.75;;;21.40;99.90;;;;;;4128869;28;20069;-62
2023/06/22 00:54:28;;;;;;;10.30;8.38;;;21.40;99.90;;;;;;4143105;28;20104;-62
2023/06/22 00:56:29;;;;;;;9.77;8.40;;;21.40;99.90;;;;;;4129830;28;20030;-74
2023/06/22 00:58:31;;;;;;;10.13;8.95;;;21.40;99.90;;;;;;4128925;28;20070;-69
2023/06/22 01:00:32;;;;;;;10.93;9.82;;;21.40;99.90;;;;;;4129428;28;20050;-66
2023/06/22 01:02:34;;;;;;;12.52;8.65;;;21.50;99.90;;;;;;4128175;28;20047;-70
2023/06/22 01:04:36;;;;;;;15.73;8.75;;;21.50;99.90;;;;;;4129404;28;20081;-72
2023/06/22 01:06:54;;;;;;;12.00;9.55;;;21.60;99.90;;;;;;4127985;28;20153;-65
2023/06/22 01:09:08;;;;;;;10.95;9.73;;;21.60;99.90;;;;;;4129188;28;20081;-63
2023/06/22 01:11:14;;;;;;;10.90;9.15;;;21.50;99.90;;;;;;4081449;28;1368933;-61
2023/06/22 01:13:31;;;;;;;10.50;8.70;;;21.50;99.90;;;;;;4127198;28;20034;-62
2023/06/22 01:15:39;;;;;;;10.80;8.88;;;21.50;99.90;;;;;;4128424;28;20030;-61
2023/06/22 01:17:42;;;;;;;11.55;9.48;;;21.30;99.90;;;;;;4129822;28;20475;-62
2023/06/22 01:20:05;;;;;;;14.45;9.90;;;21.20;99.90;;;;;;4128879;28;20031;-61
2023/06/22 01:22:12;;;;;;;10.40;9.20;;;21.20;99.90;;;;;;4129863;28;20038;-61
2023/06/22 01:24:27;;;;;;;11.15;9.88;;;21.10;99.90;;;;;;4129502;28;20117;-61
2023/06/22 01:26:49;;;;;;;13.30;10.20;;;21.00;99.90;;;;;;4130076;28;20465;-61
2023/06/22 01:28:57;;;;;;;14.65;10.57;;;20.90;99.90;;;;;;4129060;28;20073;-62
2023/06/22 01:31:05;;;;;;;11.30;10.20;;;20.80;99.90;;;;;;4129703;28;20026;-61
2023/06/22 01:33:07;;;;;;;12.15;10.95;;;20.70;99.90;;;;;;4128246;28;20124;-64
2023/06/22 01:35:10;;;;;;;12.82;10.55;;;20.60;99.90;;;;;;4129622;28;20039;-62
2023/06/22 01:37:12;;;;;;;13.60;11.73;;;20.50;99.90;;;;;;4143384;28;20030;-61
2023/06/22 01:39:13;;;;;;;14.88;11.73;;;20.50;99.90;;;;;;4129780;28;20494;-63
2023/06/22 01:41:17;;;;;;;13.32;10.57;;;20.50;99.90;;;;;;4128799;28;20076;-67
2023/06/22 01:43:22;;;;;;;13.07;10.73;;;20.50;99.90;;;;;;4127228;28;20042;-61
2023/06/22 01:45:25;;;;;;;16.15;12.40;;;20.40;99.90;;;;;;4127691;28;20069;-62
2023/06/22 01:47:27;;;;;;;12.98;11.32;;;20.30;99.90;;;;;;4128468;28;20554;-61
2023/06/22 01:49:29;;;;;;;15.23;12.50;;;20.30;99.90;;;;;;4128886;28;20046;-61
2023/06/22 01:51:30;;;;;;;14.15;11.52;;;20.20;99.90;;;;;;4128586;28;20038;-68
2023/06/22 01:53:32;;;;;;;13.75;12.35;;;20.20;99.90;;;;;;4129518;28;20512;-64
2023/06/22 01:55:33;;;;;;;15.32;11.60;;;20.20;99.90;;;;;;4128702;28;20545;-63
2023/06/22 01:57:34;;;;;;;15.00;11.93;;;20.20;99.90;;;;;;4129571;28;20085;-63
2023/06/22 02:00:09;;;;;;;15.30;11.57;;;20.20;99.90;;;;;;4128156;28;20070;-61
2023/06/22 02:02:15;;;;;;;15.55;11.13;;;20.20;99.90;;;;;;4121523;28;20105;-61
2023/06/22 02:04:47;;;;;;;17.08;11.48;;;20.20;99.90;;;;;;4126754;28;20105;-64
2023/06/22 02:06:53;;;;;;;15.00;11.45;;;20.30;99.90;;;;;;4128959;28;20038;-60
2023/06/22 02:08:59;;;;;;;13.48;11.25;;;20.30;99.90;;;;;;4128049;28;20069;-62
2023/06/22 02:11:02;;;;;;;15.02;11.57;;;20.30;99.90;;;;;;4128451;28;20109;-62
2023/06/22 02:13:07;;;;;;;13.70;12.30;;;20.30;99.90;;;;;;4127937;28;20077;-74
2023/06/22 02:15:10;;;;;;;12.90;11.55;;;20.30;99.90;;;;;;4128927;28;20031;-65
2023/06/22 02:17:12;;;;;;;16.08;12.13;;;20.20;99.90;;;;;;4119445;28;20030;-66
2023/06/22 02:19:16;;;;;;;13.02;11.13;;;20.10;99.90;;;;;;4128868;28;20042;-62
2023/06/22 02:21:20;;;;;;;13.80;11.95;;;20.20;99.90;;;;;;4127658;28;20034;-69
2023/06/22 02:23:22;;;;;;;14.75;12.55;;;20.20;99.90;;;;;;4128957;28;20132;-62
2023/06/22 02:25:24;;;;;;;21.15;16.48;;;20.10;99.90;;;;;;4126043;28;20132;-65
2023/06/22 02:27:25;;;;;;;20.15;15.70;;;20.10;99.90;;;;;;4112864;28;20042;-68
2023/06/22 02:29:27;;;;;;;17.83;13.95;;;20.10;99.90;;;;;;4127779;28;20144;-62
2023/06/22 02:31:30;;;;;;;20.05;14.95;;;20.10;99.90;;;;;;4127177;28;20054;-61
2023/06/22 02:33:31;;;;;;;15.52;13.27;;;20.00;99.90;;;;;;4127630;28;20124;-62
2023/06/22 02:35:35;;;;;;;18.02;12.95;;;20.10;99.90;;;;;;4128812;28;20100;-65
2023/06/22 02:37:41;;;;;;;17.38;13.23;;;20.10;99.90;;;;;;4127488;28;20105;-62
2023/06/22 02:39:43;;;;;;;16.38;13.07;;;20.10;99.90;;;;;;4128229;28;20030;-63
2023/06/22 02:41:44;;;;;;;13.82;12.32;;;20.10;99.90;;;;;;4128142;28;20534;-63
2023/06/22 02:43:48;;;;;;;15.07;12.82;;;20.10;99.90;;;;;;4128055;28;20100;-63
2023/06/22 02:45:49;;;;;;;13.02;11.63;;;20.20;99.90;;;;;;4127642;28;20042;-72
2023/06/22 02:47:50;;;;;;;14.13;11.73;;;20.30;99.90;;;;;;4127368;28;20479;-65
2023/06/22 02:49:51;;;;;;;13.65;12.00;;;20.30;99.90;;;;;;4128677;28;20026;-62
2023/06/22 02:51:53;;;;;;;14.32;12.65;;;20.30;99.90;;;;;;4127285;28;20088;-65
2023/06/22 02:53:57;;;;;;;14.77;12.15;;;20.30;99.90;;;;;;4128836;28;20034;-64
2023/06/22 02:55:58;;;;;;;13.50;11.55;;;20.30;99.90;;;;;;4127611;28;20042;-68
2023/06/22 02:57:59;;;;;;;15.77;12.15;;;20.30;99.90;;;;;;4128167;28;20038;-63
2023/06/22 03:00:06;;;;;;;12.65;10.93;;;20.30;99.90;;;;;;4127396;28;20085;-63
2023/06/22 03:02:08;;;;;;;13.32;11.35;;;20.20;99.90;;;;;;4128867;28;20461;-62
2023/06/22 03:04:09;;;;;;;12.25;10.95;;;20.30;99.90;;;;;;4127024;28;20058;-63
2023/06/22 03:06:13;;;;;;;12.43;11.15;;;20.30;99.90;;;;;;4128439;28;20034;-65
2023/06/22 03:08:14;;;;;;;12.95;11.55;;;20.30;99.90;;;;;;4127515;28;20047;-63
2023/06/22 03:10:16;;;;;;;12.15;10.60;;;20.40;99.90;;;;;;4128420;28;20488;-67
2023/06/22 03:12:17;;;;;;;13.10;10.70;;;20.40;99.90;;;;;;4127051;28;20085;-67
2023/06/22 03:14:18;;;;;;;11.38;9.88;;;20.40;99.90;;;;;;4127242;28;20042;-62
2023/06/22 03:16:19;;;;;;;16.27;13.40;;;20.50;99.90;;;;;;4126285;28;20437;-62
2023/06/22 03:18:22;;;;;;;14.48;13.00;;;20.50;99.90;;;;;;4127380;28;20372;-65
2023/06/22 03:20:23;;;;;;;17.95;12.13;;;20.40;99.90;;;;;;4128091;28;20085;-62
2023/06/22 03:22:24;;;;;;;11.95;10.60;;;20.50;99.90;;;;;;4126880;28;20089;-62
2023/06/22 03:24:28;;;;;;;12.43;10.98;;;20.50;99.90;;;;;;4127683;28;20439;-63
2023/06/22 03:26:29;;;;;;;14.60;11.80;;;20.50;99.90;;;;;;4125663;28;20057;-63
2023/06/22 03:28:30;;;;;;;12.38;11.05;;;20.50;99.90;;;;;;4128229;28;20089;-66
2023/06/22 03:30:32;;;;;;;15.40;12.02;;;20.40;99.90;;;;;;4127081;28;20409;-62
2023/06/22 03:32:33;;;;;;;12.00;10.65;;;20.40;99.90;;;;;;4128409;28;20475;-66
2023/06/22 03:34:35;;;;;;;12.73;10.70;;;20.40;99.90;;;;;;4126927;28;20031;-62
2023/06/22 03:36:37;;;;;;;13.75;11.15;;;20.30;99.90;;;;;;4128047;28;20105;-62
2023/06/22 03:38:38;;;;;;;12.73;11.07;;;20.30;99.90;;;;;;4126632;28;20066;-62
2023/06/22 03:40:39;;;;;;;15.05;11.70;;;20.20;99.90;;;;;;4142985;28;20045;-72
2023/06/22 03:42:40;;;;;;;12.70;10.80;;;20.10;99.90;;;;;;4126758;28;20549;-62
2023/06/22 03:44:41;;;;;;;12.52;11.25;;;20.10;99.90;;;;;;4127832;28;20636;-63
2023/06/22 03:46:42;;;;;;;16.25;12.02;;;20.20;99.90;;;;;;4126717;28;20038;-64
2023/06/22 03:48:43;;;;;;;13.80;11.52;;;20.20;99.90;;;;;;4126808;28;20046;-65
2023/06/22 03:50:45;;;;;;;16.65;11.63;;;20.20;99.90;;;;;;4127928;28;20491;-71
2023/06/22 03:52:46;;;;;;;14.10;12.05;;;20.30;99.90;;;;;;4127195;28;20030;-62
2023/06/22 03:54:48;;;;;;;13.23;11.82;;;20.30;99.90;;;;;;4127503;28;20042;-63
2023/06/22 03:56:49;;;;;;;15.23;12.07;;;20.40;99.90;;;;;;4126433;28;20125;-63
2023/06/22 03:58:50;;;;;;;15.27;12.10;;;20.50;99.90;;;;;;4126814;28;20097;-61
2023/06/22 04:00:52;;;;;;;13.73;11.60;;;20.50;99.90;;;;;;4126275;28;20038;-62
2023/06/22 04:02:54;;;;;;;12.98;11.07;;;20.50;99.90;;;;;;4128060;28;20112;-65
2023/06/22 04:04:55;;;;;;;14.55;11.75;;;20.70;99.90;;;;;;4125985;28;20128;-62
2023/06/22 04:06:56;;;;;;;13.20;10.90;;;20.80;99.90;;;;;;4127892;28;20532;-65
2023/06/22 04:08:57;;;;;;;18.40;12.13;;;21.00;99.90;;;;;;4126416;28;20026;-63
2023/06/22 04:10:58;;;;;;;15.02;11.65;;;21.10;99.90;;;;;;4127340;28;20089;-62
2023/06/22 04:13:01;;;;;;;13.73;11.43;;;21.20;99.90;;;;;;4126686;28;20030;-62
2023/06/22 04:15:02;;;;;;;12.38;11.05;;;21.30;99.90;;;;;;4127441;28;20034;-63
2023/06/22 04:17:04;;;;;;;13.65;11.45;;;21.40;99.90;;;;;;4110844;28;20034;-65
2023/06/22 04:19:05;;;;;;;13.63;11.27;;;21.70;99.90;;;;;;4125465;28;20035;-63
2023/06/22 04:21:06;;;;;;;13.25;10.70;;;21.90;99.90;;;;;;4111256;28;20089;-66
2023/06/22 04:23:07;;;;;;;12.38;10.30;;;22.00;99.90;;;;;;4110498;28;20081;-62
2023/06/22 04:25:08;;;;;;;14.75;11.30;;;22.10;99.90;;;;;;4112581;28;20042;-63
2023/06/22 04:27:10;;;;;;;13.02;11.18;;;22.30;99.90;;;;;;4127688;28;20096;-62
2023/06/22 04:29:11;;;;;;;23.48;12.68;;;22.60;99.90;;;;;;4130265;28;20092;-62
2023/06/22 04:31:12;;;;;;;13.38;10.25;;;23.00;99.90;;;;;;4129436;28;20096;-71
2023/06/22 04:33:16;;;;;;;12.82;10.68;;;23.30;99.90;;;;;;4130334;28;20172;-67
2023/06/22 04:35:17;;;;;;;11.45;10.02;;;23.70;99.90;;;;;;4129022;28;20116;-65
2023/06/22 04:37:18;;;;;;;10.65;9.50;;;24.00;99.90;;;;;;4130460;28;20803;-63
2023/06/22 04:39:20;;;;;;;12.57;10.10;;;24.30;99.90;;;;;;4129355;28;20027;-63
2023/06/22 04:41:23;;;;;;;11.00;9.68;;;24.70;99.90;;;;;;4129559;28;20035;-62
2023/06/22 04:43:24;;;;;;;10.75;9.45;;;25.10;99.90;;;;;;4129078;28;20034;-74
2023/06/22 04:45:25;;;;;;;13.07;9.45;;;25.60;99.90;;;;;;4129910;28;20426;-62
2023/06/22 04:47:26;;;;;;;11.80;9.35;;;26.00;99.90;;;;;;4128774;28;20438;-62
2023/06/22 04:49:35;;;;;;;12.50;9.27;;;26.50;99.90;;;;;;4129840;28;20030;-76
2023/06/22 04:51:41;;;;;;;11.55;8.40;;;27.00;99.90;;;;;;4129002;28;20030;-64
2023/06/22 04:53:42;;;;;;;10.13;9.05;;;27.20;99.90;;;;;;4129314;28;20035;-65
2023/06/22 04:55:46;;;;;;;14.73;8.27;;;27.60;99.90;;;;;;4129554;28;20400;-63
2023/06/22 04:57:51;;;;;;;14.45;8.73;;;27.80;99.90;;;;;;4129359;28;20104;-66
2023/06/22 04:59:52;;;;;;;10.02;7.28;;;28.00;99.90;;;;;;4128240;28;20038;-63
2023/06/22 05:01:57;;;;;;;9.73;8.73;;;28.20;99.90;;;;;;4127622;28;20027;-63
2023/06/22 05:04:00;;;;;;;17.33;7.90;;;27.90;99.90;;;;;;4129814;28;20047;-64
2023/06/22 05:06:02;;;;;;;11.65;8.55;;;27.60;99.90;;;;;;4128633;28;20130;-63
2023/06/22 05:08:06;;;;;;;14.00;11.75;;;27.40;99.90;;;;;;4129802;28;20073;-63
2023/06/22 05:10:07;;;;;;;22.10;11.48;;;27.70;99.90;;;;;;4128835;28;20026;-66
2023/06/22 05:12:09;;;;;;;20.48;10.98;;;28.10;99.90;;;;;;4130084;28;20190;-62
2023/06/22 05:14:10;;;;;;;15.13;9.60;;;28.90;99.90;;;;;;4128957;28;20038;-64
2023/06/22 05:16:11;;;;;;;12.93;9.88;;;29.40;99.90;;;;;;4129654;28;20081;-62
2023/06/22 05:18:12;;;;;;;12.02;9.00;;;29.80;99.90;;;;;;4128457;28;20093;-64
2023/06/22 05:20:14;;;;;;;17.10;10.57;;;30.10;99.90;;;;;;4113856;28;20097;-65
2023/06/22 05:22:15;;;;;;;27.55;10.93;;;30.20;99.90;;;;;;4116850;28;20027;-63
2023/06/22 05:24:16;;;;;;;20.90;10.07;;;30.30;99.90;;;;;;4128595;28;20034;-69
2023/06/22 05:26:19;;;;;;;23.45;9.55;;;30.90;99.90;;;;;;4128978;28;20474;-63
2023/06/22 05:28:22;;;;;;;21.90;10.95;;;31.30;99.90;;;;;;4128948;28;20101;-64
2023/06/22 05:30:23;;;;;;;17.60;9.73;;;31.50;99.90;;;;;;4128975;28;20081;-67
2023/06/22 05:32:25;;;;;;;20.90;8.45;;;31.60;99.90;;;;;;4129110;28;20038;-68
2023/06/22 05:34:26;;;;;;;17.48;9.15;;;31.50;99.90;;;;;;4129805;28;20030;-65
2023/06/22 05:36:27;;;;;;;18.92;9.60;;;31.50;99.90;;;;;;4128892;28;20022;-65
2023/06/22 05:38:28;;;;;;;23.13;9.60;;;31.80;99.90;;;;;;4127904;28;20046;-69
2023/06/22 05:40:29;;;;;;;18.10;9.50;;;32.20;99.90;;;;;;4128007;28;20049;-68
2023/06/22 05:42:30;;;;;;;17.80;8.48;;;32.20;99.90;;;;;;4129615;28;20027;-69
2023/06/22 05:44:33;;;;;;;19.55;8.57;;;32.10;99.90;;;;;;4132555;28;20088;-67
2023/06/22 05:46:34;;;;;;;13.45;7.90;;;32.70;99.90;;;;;;4134789;28;20137;-78
2023/06/22 05:48:35;;;;;;;16.17;8.85;;;33.20;99.60;;;;;;4128273;28;20026;-67
2023/06/22 05:50:37;;;;;;;15.90;7.70;;;33.40;98.80;;;;;;4129572;28;20038;-69
2023/06/22 05:52:38;;;;;;;19.90;8.20;;;33.60;98.50;;;;;;4128270;28;20475;-61
2023/06/22 05:54:41;;;;;;;16.95;8.00;;;33.60;98.10;;;;;;4128730;28;20089;-66
2023/06/22 05:56:42;;;;;;;34.33;11.02;;;33.60;98.20;;;;;;4128374;28;20033;-65
2023/06/22 05:58:43;;;;;;;38.53;12.18;;;33.70;97.80;;;;;;4128383;28;20042;-63
2023/06/22 06:00:46;;;;;;;62.97;14.13;;;33.70;97.40;;;;;;4127888;28;20518;-63
2023/06/22 06:02:49;;;;;;;15.52;8.98;;;33.90;97.30;;;;;;4128588;28;20057;-67
2023/06/22 06:04:52;;;;;;;21.25;8.90;;;33.70;96.90;;;;;;4128475;28;20128;-68
2023/06/22 06:06:53;;;;;;;16.73;7.93;;;33.60;96.90;;;;;;4127420;28;20085;-66
2023/06/22 06:08:55;;;;;;;29.80;10.40;;;33.50;96.90;;;;;;4128098;28;20451;-64
2023/06/22 06:10:57;;;;;;;20.33;8.25;;;32.90;96.90;;;;;;4127258;28;20060;-66
2023/06/22 06:13:01;;;;;;;12.13;8.63;;;32.60;97.20;;;;;;4128462;28;20050;-65
2023/06/22 06:15:04;;;;;;;14.30;8.60;;;32.00;97.60;;;;;;4128071;28;20139;-63
2023/06/22 06:17:05;;;;;;;17.65;8.50;;;31.70;98.00;;;;;;4128413;28;20038;-69
2023/06/22 06:19:06;;;;;;;15.13;9.13;;;31.50;98.30;;;;;;4127759;28;20538;-66
2023/06/22 06:21:07;;;;;;;17.65;8.50;;;31.40;98.50;;;;;;4128982;28;20034;-66
2023/06/22 06:23:08;;;;;;;20.23;8.18;;;31.30;98.60;;;;;;4127641;28;20061;-63
2023/06/22 06:25:10;;;;;;;16.20;8.00;;;31.60;98.30;;;;;;4129144;28;20058;-64
2023/06/22 06:27:11;;;;;;;18.90;7.75;;;32.10;97.90;;;;;;4127443;28;20084;-69
2023/06/22 06:29:12;;;;;;;13.50;7.72;;;32.50;97.50;;;;;;4127667;28;20038;-67
2023/06/22 06:31:17;;;;;;;17.52;7.88;;;32.50;97.00;;;;;;4127475;28;20101;-62
2023/06/22 06:33:18;;;;;;;17.45;7.90;;;32.00;97.10;;;;;;4127905;28;20782;-68
2023/06/22 06:35:19;;;;;;;13.73;8.40;;;31.90;97.30;;;;;;4127245;28;20111;-68
2023/06/22 06:37:20;;;;;;;13.82;7.82;;;31.50;97.20;;;;;;4127042;28;20034;-65
2023/06/22 06:39:21;;;;;;;21.77;8.45;;;31.10;97.50;;;;;;4128176;28;20034;-66
2023/06/22 06:41:23;;;;;;;17.02;9.52;;;30.60;97.90;;;;;;4127530;28;20440;-63
2023/06/22 06:43:24;;;;;;;14.55;9.13;;;30.10;98.60;;;;;;4128362;28;20089;-66
2023/06/22 06:45:28;;;;;;;18.80;9.20;;;29.50;99.20;;;;;;4126430;28;20042;-63
2023/06/22 06:47:29;;;;;;;23.98;9.95;;;28.80;99.70;;;;;;4128164;28;20682;-65
2023/06/22 06:49:30;;;;;;;23.17;9.27;;;29.10;99.90;;;;;;4127516;28;20030;-68
2023/06/22 06:51:31;;;;;;;18.75;9.85;;;29.60;99.70;;;;;;4128919;28;20503;-64
2023/06/22 06:53:33;;;;;;;15.18;9.00;;;29.90;99.30;;;;;;4127576;28;20089;-68
2023/06/22 06:55:34;;;;;;;14.50;8.82;;;29.30;99.50;;;;;;4128552;28;20022;-66
2023/06/22 06:57:36;;;;;;;19.02;10.02;;;28.80;99.90;;;;;;4126767;28;20080;-63
2023/06/22 06:59:38;;;;;;;24.38;10.27;;;28.30;99.90;;;;;;4127530;28;20084;-66
2023/06/22 07:01:39;;;;;;;18.65;9.27;;;28.00;99.90;;;;;;4126996;28;20109;-65
2023/06/22 07:03:40;;;;;;;14.77;9.48;;;27.90;99.90;;;;;;4127466;28;20042;-63
2023/06/22 07:05:41;;;;;;;17.98;8.82;;;27.80;99.90;;;;;;4127748;28;20035;-62
2023/06/22 07:07:42;;;;;;;19.42;8.63;;;28.10;99.90;;;;;;4127551;28;20471;-64
2023/06/22 07:09:43;;;;;;;20.73;8.43;;;27.80;99.90;;;;;;4127393;28;20073;-65
2023/06/22 07:11:44;;;;;;;18.23;8.25;;;27.80;99.90;;;;;;4132167;28;20026;-63
2023/06/22 07:13:45;;;;;;;20.00;8.68;;;27.80;99.90;;;;;;4136105;28;20136;-63
2023/06/22 07:15:47;;;;;;;11.70;7.88;;;27.90;99.90;;;;;;4132023;28;20446;-66
2023/06/22 07:17:48;;;;;;;11.32;8.07;;;28.00;99.90;;;;;;4142695;28;20111;-62
2023/06/22 07:19:49;;;;;;;9.38;7.75;;;27.80;99.90;;;;;;4143357;28;20104;-59
2023/06/22 07:21:50;;;;;;;11.18;7.75;;;27.80;99.90;;;;;;4144255;28;20038;-62
2023/06/22 07:23:51;;;;;;;10.57;7.50;;;27.70;99.90;;;;;;4132881;28;20042;-60
2023/06/22 07:25:52;;;;;;;11.70;7.95;;;27.80;99.90;;;;;;4127977;28;20078;-65
2023/06/22 07:27:59;;;;;;;14.85;7.72;;;27.70;99.90;;;;;;4127385;28;20399;-67
2023/06/22 07:30:00;;;;;;;11.05;8.23;;;27.80;99.90;;;;;;4127872;28;20043;-71
2023/06/22 07:32:04;;;;;;;9.55;8.55;;;28.00;99.90;;;;;;4127286;28;20849;-64
2023/06/22 07:34:05;;;;;;;10.63;8.00;;;28.00;99.90;;;;;;4127728;28;20030;-62
2023/06/22 07:36:07;;;;;;;8.52;7.60;;;27.80;99.90;;;;;;4126903;28;20101;-63
2023/06/22 07:38:09;;;;;;;12.27;6.85;;;27.90;99.90;;;;;;4126527;28;20042;-71
2023/06/22 07:40:11;;;;;;;13.35;7.50;;;27.90;99.90;;;;;;4125663;28;20088;-62
2023/06/22 07:42:12;;;;;;;9.05;6.68;;;28.00;99.90;;;;;;4126793;28;20038;-68
2023/06/22 07:44:13;;;;;;;11.02;7.57;;;28.00;99.90;;;;;;4127966;28;20034;-61
2023/06/22 07:46:15;;;;;;;9.75;6.70;;;28.30;99.90;;;;;;4126269;28;20088;-64
2023/06/22 07:48:16;;;;;;;10.25;7.32;;;28.90;99.90;;;;;;4128180;28;20101;-61
2023/06/22 07:50:17;;;;;;;7.75;6.95;;;29.30;99.90;;;;;;4126736;28;20093;-61
2023/06/22 07:52:18;;;;;;;10.07;6.65;;;28.90;99.90;;;;;;4127680;28;20105;-61
2023/06/22 07:54:19;;;;;;;7.68;6.88;;;28.60;99.90;;;;;;4125808;28;20172;-63
2023/06/22 07:56:21;;;;;;;12.07;7.10;;;28.70;99.90;;;;;;4128141;28;20026;-61
2023/06/22 07:58:22;;;;;;;7.47;6.35;;;28.60;99.90;;;;;;4126126;28;20034;-65
2023/06/22 08:00:23;;;;;;;8.73;6.72;;;28.70;99.90;;;;;;4127225;28;20080;-62
2023/06/22 08:02:25;;;;;;;13.15;7.22;;;28.60;99.90;;;;;;4128292;28;20038;-63
2023/06/22 08:04:27;;;;;;;10.77;6.90;;;28.40;99.90;;;;;;4131112;28;20038;-64
2023/06/22 08:06:30;;;;;;;7.78;6.97;;;28.40;99.90;;;;;;4129745;28;20081;-61
2023/06/22 08:08:32;;;;;;;8.05;7.20;;;28.40;99.90;;;;;;4130695;28;20081;-63
2023/06/22 08:10:33;;;;;;;8.23;6.93;;;28.30;99.90;;;;;;4131071;28;20503;-63
2023/06/22 08:12:34;;;;;;;9.23;7.50;;;28.20;99.90;;;;;;4137128;28;20018;-64
2023/06/22 08:14:39;;;;;;;9.63;7.38;;;28.20;99.90;;;;;;4136343;28;20078;-63
2023/06/22 08:16:41;;;;;;;9.80;7.95;;;28.20;99.90;;;;;;4137172;28;20042;-63
2023/06/22 08:18:43;;;;;;;9.10;6.90;;;28.10;99.90;;;;;;4136030;28;20034;-63
2023/06/22 08:20:44;;;;;;;9.13;7.60;;;28.20;99.90;;;;;;4132290;28;20026;-63
2023/06/22 08:22:45;;;;;;;9.70;7.30;;;28.30;99.90;;;;;;4130293;28;20182;-61
2023/06/22 08:24:46;;;;;;;9.90;7.05;;;28.20;99.90;;;;;;4129514;28;20200;-66
2023/06/22 08:26:49;;;;;;;9.38;7.45;;;28.20;99.90;;;;;;4131197;28;20031;-63
2023/06/22 08:28:50;;;;;;;9.35;7.13;;;28.10;99.90;;;;;;4129156;28;20811;-62
2023/06/22 08:30:51;;;;;;;9.00;7.05;;;28.40;99.90;;;;;;4138049;28;20050;-63
2023/06/22 08:32:55;;;;;;;7.35;6.60;;;28.50;99.90;;;;;;4134189;28;20085;-62
2023/06/22 08:34:57;;;;;;;7.65;6.85;;;28.90;99.90;;;;;;4131809;28;20112;-65
2023/06/22 08:36:58;;;;;;;7.18;6.45;;;29.40;99.90;;;;;;4131330;28;20014;-63
2023/06/22 08:39:02;;;;;;;7.72;6.95;;;29.70;99.90;;;;;;4137268;28;20034;-65
2023/06/22 08:41:03;;;;;;;12.57;7.45;;;29.40;99.90;;;;;;4131905;28;20076;-66
2023/06/22 08:43:05;;;;;;;10.88;7.53;;;29.10;99.90;;;;;;4129499;28;20023;-63
2023/06/22 08:45:07;;;;;;;10.75;6.90;;;28.80;99.90;;;;;;4129123;28;20023;-64
2023/06/22 08:47:08;;;;;;;8.52;6.80;;;28.40;99.90;;;;;;4128279;28;20054;-64
2023/06/22 08:49:09;;;;;;;8.27;6.45;;;28.20;99.90;;;;;;4129904;28;20116;-62
2023/06/22 08:51:11;;;;;;;10.70;7.10;;;28.10;99.90;;;;;;4129292;28;20077;-70
2023/06/22 08:53:12;;;;;;;12.00;8.00;;;27.90;99.90;;;;;;4130158;28;20085;-64
2023/06/22 08:55:14;;;;;;;24.88;8.73;;;27.90;99.90;;;;;;4128837;28;20080;-66
2023/06/22 08:57:15;;;;;;;12.88;7.97;;;27.90;99.90;;;;;;4130473;28;20026;-65
2023/06/22 08:59:17;;;;;;;8.07;7.28;;;27.70;99.90;;;;;;4128494;28;20545;-60
2023/06/22 09:01:18;;;;;;;11.63;7.18;;;27.70;99.90;;;;;;4130097;28;20030;-61
2023/06/22 09:03:20;;;;;;;12.23;7.60;;;27.70;99.90;;;;;;4127521;28;20046;-61
2023/06/22 09:05:21;;;;;;;10.10;7.15;;;27.60;99.90;;;;;;4129532;28;20051;-63
2023/06/22 09:07:23;;;;;;;9.88;7.18;;;27.50;99.90;;;;;;4128690;28;20042;-68
2023/06/22 09:09:24;;;;;;;10.05;7.60;;;27.60;99.90;;;;;;4129721;28;20037;-63
2023/06/22 09:11:25;;;;;;;15.00;7.50;;;27.70;99.90;;;;;;4128461;28;20110;-62
2023/06/22 09:13:30;;;;;;;9.77;7.32;;;27.80;99.90;;;;;;4128394;28;20065;-62
2023/06/22 09:15:31;;;;;;;9.57;6.70;;;28.10;99.90;;;;;;4128229;28;20124;-65
2023/06/22 09:17:33;;;;;;;10.00;6.15;;;28.20;99.90;;;;;;4128540;28;20100;-62
2023/06/22 09:19:34;;;;;;;5.90;3.10;;;28.20;99.90;;;;;;4129036;28;20109;-65
2023/06/22 09:21:35;;;;;;;5.05;2.63;;;28.40;99.90;;;;;;4128376;28;20035;-67
2023/06/22 09:23:37;;;;;;;5.65;2.80;;;28.70;99.90;;;;;;4129206;28;20050;-66
2023/06/22 09:25:38;;;;;;;3.15;2.42;;;29.10;99.90;;;;;;4128694;28;20046;-63
2023/06/22 09:27:39;;;;;;;4.30;2.63;;;29.40;99.20;;;;;;4129970;28;20073;-69
2023/06/22 09:29:40;;;;;;;2.85;2.33;;;29.60;98.40;;;;;;4127715;28;20110;-66
2023/06/22 09:31:41;;;;;;;2.88;1.98;;;30.00;98.10;;;;;;4129590;28;20105;-65
2023/06/22 09:33:43;;;;;;;3.33;2.75;;;30.30;97.70;;;;;;4128269;28;20092;-68
2023/06/22 09:35:44;;;;;;;3.53;2.92;;;30.60;97.60;;;;;;4129617;28;20085;-63
2023/06/22 09:37:45;;;;;;;7.18;2.63;;;30.80;97.30;;;;;;4130332;28;20109;-67
2023/06/22 09:39:46;;;;;;;2.25;2.10;;;30.70;97.30;;;;;;4135165;28;20503;-64
2023/06/22 09:41:48;;;;;;;2.88;2.55;;;30.50;97.20;;;;;;4127683;28;20089;-64
2023/06/22 09:43:49;;;;;;;3.65;2.53;;;30.40;96.80;;;;;;4127906;28;21479;-65
2023/06/22 09:45:50;;;;;;;4.45;2.78;;;30.40;96.80;;;;;;4128229;28;20089;-63
2023/06/22 09:47:51;;;;;;;5.05;2.58;;;30.40;96.60;;;;;;4128879;28;20353;-62
2023/06/22 09:49:55;;;;;;;4.03;2.22;;;30.30;96.40;;;;;;4128852;28;20097;-64
2023/06/22 09:51:56;;;;;;;5.53;2.60;;;30.20;96.00;;;;;;4128211;28;20034;-61
2023/06/22 09:53:58;;;;;;;4.13;2.00;;;30.10;95.90;;;;;;4129214;28;20097;-74
2023/06/22 09:56:00;;;;;;;4.53;2.50;;;29.90;95.80;;;;;;4127865;28;20530;-62
2023/06/22 09:58:01;;;;;;;5.97;2.55;;;29.80;96.20;;;;;;4129314;28;20121;-63
2023/06/22 10:00:05;;;;;;;4.38;2.50;;;29.90;95.90;;;;;;4127392;28;20038;-63
2023/06/22 10:02:07;;;;;;;4.38;2.42;;;29.90;95.80;;;;;;4128591;28;20643;-62
2023/06/22 10:04:08;;;;;;;9.15;3.28;;;29.70;95.50;;;;;;4127953;28;20034;-62
2023/06/22 10:06:09;;;;;;;4.30;2.70;;;29.60;95.80;;;;;;4128806;28;20109;-65
2023/06/22 10:08:10;;;;;;;4.07;3.05;;;29.50;95.70;;;;;;4127413;28;20042;-61
2023/06/22 10:10:12;;;;;;;4.72;2.67;;;29.50;95.90;;;;;;4128111;28;20035;-59
2023/06/22 10:12:13;;;;;;;6.18;2.70;;;29.60;95.90;;;;;;4127323;28;20035;-60
2023/06/22 10:14:15;;;;;;;4.28;2.53;;;29.80;96.10;;;;;;4128627;28;20030;-62
2023/06/22 10:16:16;;;;;;;5.28;2.53;;;29.90;95.80;;;;;;4125839;28;20096;-63
2023/06/22 10:18:18;;;;;;;7.53;2.65;;;29.70;95.90;;;;;;4128185;28;20042;-62
2023/06/22 10:20:20;;;;;;;3.55;2.53;;;29.70;95.90;;;;;;4128045;28;20467;-63
2023/06/22 10:22:21;;;;;;;4.72;2.15;;;29.70;95.80;;;;;;4126409;28;20046;-62
2023/06/22 10:24:22;;;;;;;3.20;2.90;;;29.80;96.20;;;;;;4128151;28;20104;-62
2023/06/22 10:26:24;;;;;;;5.43;2.80;;;29.90;96.30;;;;;;4127539;28;20050;-63
2023/06/22 10:28:25;;;;;;;3.30;3.00;;;30.00;95.90;;;;;;4125722;28;20030;-62